createdAt,value
2018-03-31T00:02:14.076Z,95112.40
2018-03-31T00:04:40.067Z,95103.00
2018-03-31T00:07:06.075Z,95105.92
2018-03-31T00:09:32.071Z,95092.73
2018-03-31T00:11:58.064Z,95104.73
2018-03-31T00:14:24.058Z,95107.70
2018-03-31T00:16:50.056Z,95102.36
2018-03-31T00:19:16.084Z,95100.41
2018-03-31T00:21:42.081Z,95092.92
2018-03-31T00:24:08.071Z,95105.71
2018-03-31T00:26:34.070Z,95098.64
2018-03-31T00:29:00.068Z,95101.18
2018-03-31T00:31:26.063Z,95092.68
2018-03-31T00:33:52.082Z,95094.87
2018-03-31T00:36:18.074Z,95088.18
2018-03-31T00:38:44.067Z,95082.27
2018-03-31T00:41:10.058Z,95089.36
2018-03-31T00:43:36.075Z,95099.80
2018-03-31T00:46:02.069Z,95087.82
2018-03-31T00:48:28.101Z,95090.94
2018-03-31T00:50:54.094Z,95087.58
2018-03-31T00:53:20.087Z,95092.11
2018-03-31T00:55:46.089Z,95087.17
2018-03-31T00:58:12.078Z,95086.80
2018-03-31T01:00:38.073Z,95100.73
2018-03-31T01:03:04.071Z,95085.63
2018-03-31T01:05:30.054Z,95097.41
2018-03-31T01:07:56.052Z,95081.46
2018-03-31T01:10:22.068Z,95080.08
2018-03-31T01:12:48.059Z,95079.52
2018-03-31T01:15:14.125Z,95098.38
2018-03-31T01:17:40.110Z,95096.24
2018-03-31T01:20:06.048Z,95093.45
2018-03-31T01:22:32.063Z,95096.60
2018-03-31T01:24:58.088Z,95087.73
2018-03-31T01:27:24.035Z,95085.37
2018-03-31T01:29:50.244Z,95071.78
2018-03-31T01:32:16.223Z,95074.38
2018-03-31T01:34:42.206Z,95076.88
2018-03-31T01:37:08.158Z,95069.19
2018-03-31T01:39:34.161Z,95059.39
2018-03-31T01:42:00.141Z,95055.88
2018-03-31T01:44:26.120Z,95046.60
2018-03-31T01:46:52.136Z,95034.38
2018-03-31T01:49:18.113Z,95053.31
2018-03-31T01:51:44.088Z,95045.63
2018-03-31T01:54:10.071Z,95058.42
2018-03-31T01:56:36.089Z,95049.76
2018-03-31T01:59:02.046Z,95061.74
2018-03-31T02:01:28.034Z,95048.38
2018-03-31T02:03:54.061Z,95045.80
2018-03-31T02:06:20.002Z,95056.07
2018-03-31T02:08:46.013Z,95042.88
2018-03-31T02:11:12.027Z,95056.59
2018-03-31T02:13:37.979Z,95055.83
2018-03-31T02:16:03.952Z,95049.19
2018-03-31T02:18:29.940Z,95038.70
2018-03-31T02:20:55.956Z,95052.27
2018-03-31T02:23:21.901Z,95049.14
2018-03-31T02:25:47.904Z,95036.92
2018-03-31T02:28:13.881Z,95049.92
2018-03-31T02:30:39.862Z,95056.80
2018-03-31T02:33:05.844Z,95043.64
2018-03-31T02:35:31.819Z,95029.07
2018-03-31T02:37:57.829Z,95037.33
2018-03-31T02:40:23.809Z,95026.13
2018-03-31T02:42:49.821Z,95032.03
2018-03-31T02:45:15.809Z,95034.17
2018-03-31T02:47:41.782Z,95036.11
2018-03-31T02:50:07.775Z,95022.76
2018-03-31T02:52:33.748Z,95009.56
2018-03-31T02:54:59.725Z,95029.64
2018-03-31T02:57:25.710Z,95009.80
2018-03-31T02:59:51.737Z,95011.34
2018-03-31T03:02:17.688Z,95032.96
2018-03-31T03:04:43.730Z,95020.41
2018-03-31T03:07:09.681Z,95007.61
2018-03-31T03:09:35.697Z,95027.69
2018-03-31T03:12:01.682Z,95017.45
2018-03-31T03:14:27.632Z,95008.19
2018-03-31T03:16:53.606Z,95027.86
2018-03-31T03:19:19.623Z,95003.84
2018-03-31T03:21:45.634Z,95017.48
2018-03-31T03:24:11.584Z,95007.05
2018-03-31T03:26:37.565Z,95002.34
2018-03-31T03:29:03.591Z,94996.20
2018-03-31T03:31:29.601Z,95001.91
2018-03-31T03:33:55.575Z,95005.22
2018-03-31T03:36:21.556Z,95001.30
2018-03-31T03:38:47.574Z,95002.11
2018-03-31T03:41:13.548Z,94994.78
2018-03-31T03:43:39.601Z,94995.59
2018-03-31T03:46:05.532Z,95004.42
2018-03-31T03:48:31.544Z,94976.72
2018-03-31T03:50:57.492Z,94992.67
2018-03-31T03:53:23.505Z,94973.97
2018-03-31T03:55:49.454Z,94964.47
2018-03-31T03:58:15.457Z,94986.32
2018-03-31T04:00:41.463Z,94979.64
2018-03-31T04:03:07.420Z,94949.36
2018-03-31T04:05:33.396Z,94957.86
2018-03-31T04:07:59.420Z,94982.80
2018-03-31T04:10:25.428Z,94954.87
2018-03-31T04:12:51.407Z,94982.39
2018-03-31T04:15:17.361Z,94953.89
2018-03-31T04:17:43.336Z,94974.95
2018-03-31T04:20:09.323Z,94969.23
2018-03-31T04:22:35.303Z,94962.35
2018-03-31T04:25:01.283Z,94992.39
2018-03-31T04:27:27.260Z,94981.95
2018-03-31T04:29:53.232Z,94983.97
2018-03-31T04:32:19.252Z,94980.61
2018-03-31T04:34:45.192Z,94980.24
2018-03-31T04:37:11.209Z,94988.50
2018-03-31T04:39:37.157Z,94990.41
2018-03-31T04:42:03.139Z,95005.39
2018-03-31T04:44:29.162Z,94990.45
2018-03-31T04:46:55.175Z,94987.45
2018-03-31T04:49:21.160Z,95001.45
2018-03-31T04:51:47.181Z,94972.52
2018-03-31T04:54:13.182Z,94979.94
2018-03-31T04:56:39.197Z,94967.98
2018-03-31T04:59:05.139Z,94983.97
2018-03-31T05:01:31.120Z,94990.21
2018-03-31T05:03:57.096Z,94993.37
2018-03-31T05:06:23.205Z,95000.58
2018-03-31T05:08:49.210Z,94995.07
2018-03-31T05:11:15.147Z,95003.20
2018-03-31T05:13:41.136Z,95006.52
2018-03-31T05:16:07.145Z,95015.17
2018-03-31T05:18:33.144Z,95016.36
2018-03-31T05:20:59.091Z,95017.53
2018-03-31T05:23:25.098Z,95017.53
2018-03-31T05:25:51.052Z,95039.11
2018-03-31T05:28:17.029Z,95023.44
2018-03-31T05:30:43.042Z,95057.88
2018-03-31T05:33:09.047Z,95043.24
2018-03-31T05:35:34.989Z,95053.71
2018-03-31T05:38:01.178Z,95015.17
2018-03-31T05:40:27.166Z,95043.24
2018-03-31T05:42:53.181Z,95017.53
2018-03-31T05:45:19.128Z,95035.55
2018-03-31T05:47:45.132Z,95058.58
2018-03-31T05:50:11.124Z,95045.59
2018-03-31T05:52:37.117Z,95033.00
2018-03-31T05:55:03.123Z,95049.72
2018-03-31T05:57:29.124Z,95020.81
2018-03-31T05:59:55.067Z,95033.80
2018-03-31T06:02:21.082Z,95035.34
2018-03-31T06:04:47.025Z,95018.27
2018-03-31T06:07:13.058Z,95038.66
2018-03-31T06:09:39.048Z,95039.68
2018-03-31T06:12:04.982Z,95052.02
2018-03-31T06:14:32.850Z,95055.02
2018-03-31T06:16:58.908Z,95041.83
2018-03-31T06:19:25.162Z,95041.83
2018-03-31T06:21:51.645Z,95042.23
2018-03-31T06:24:17.649Z,95033.00
2018-03-31T06:26:43.636Z,95020.20
2018-03-31T06:29:09.580Z,95028.46
2018-03-31T06:31:35.575Z,95023.13
2018-03-31T06:34:01.555Z,95037.94
2018-03-31T06:36:27.604Z,95041.66
2018-03-31T06:38:53.591Z,95022.80
2018-03-31T06:41:19.588Z,95039.64
2018-03-31T06:43:45.574Z,95029.84
2018-03-31T06:46:11.592Z,95019.59
2018-03-31T06:48:37.536Z,95017.25
2018-03-31T06:51:03.531Z,95007.42
2018-03-31T06:53:29.504Z,95011.38
2018-03-31T06:55:55.489Z,95000.13
2018-03-31T06:58:21.570Z,94990.50
2018-03-31T07:00:47.500Z,94983.25
2018-03-31T07:03:13.488Z,94978.16
2018-03-31T07:05:39.478Z,94963.69
2018-03-31T07:08:05.502Z,94976.78
2018-03-31T07:10:31.491Z,94975.67
2018-03-31T07:12:57.467Z,94985.30
2018-03-31T07:15:23.453Z,94984.38
2018-03-31T07:17:49.442Z,94979.80
2018-03-31T07:20:15.409Z,94975.31
2018-03-31T07:22:41.501Z,94967.01
2018-03-31T07:25:07.474Z,94971.75
2018-03-31T07:27:33.455Z,94983.16
2018-03-31T07:29:59.467Z,94976.11
2018-03-31T07:32:25.455Z,94974.50
2018-03-31T07:34:51.433Z,94969.97
2018-03-31T07:37:17.483Z,94983.97
2018-03-31T07:39:43.456Z,94986.52
2018-03-31T07:42:09.433Z,94985.34
2018-03-31T07:44:35.448Z,94986.13
2018-03-31T07:47:01.432Z,94992.03
2018-03-31T07:49:27.442Z,94988.88
2018-03-31T07:51:53.472Z,94981.47
2018-03-31T07:54:19.452Z,94974.38
2018-03-31T07:56:45.435Z,94987.90
2018-03-31T07:59:11.424Z,94983.61
2018-03-31T08:01:37.405Z,94981.42
2018-03-31T08:04:03.390Z,94981.99
2018-03-31T08:06:29.481Z,94959.97
2018-03-31T08:08:55.441Z,94971.79
2018-03-31T08:11:21.448Z,94976.89
2018-03-31T08:13:47.444Z,94985.63
2018-03-31T08:16:13.418Z,94983.61
2018-03-31T08:18:39.648Z,94966.33
2018-03-31T08:21:05.664Z,94983.81
2018-03-31T08:23:31.655Z,94974.58
2018-03-31T08:25:57.717Z,94954.91
2018-03-31T08:28:23.713Z,94961.79
2018-03-31T08:30:49.683Z,94953.53
2018-03-31T08:33:15.760Z,94949.60
2018-03-31T08:35:41.738Z,94943.13
2018-03-31T08:38:07.716Z,94950.42
2018-03-31T08:40:33.697Z,94934.09
2018-03-31T08:42:59.755Z,94932.16
2018-03-31T08:45:25.733Z,94918.63
2018-03-31T08:47:51.682Z,94929.72
2018-03-31T08:50:17.666Z,94904.98
2018-03-31T08:52:43.678Z,94916.03
2018-03-31T08:55:09.657Z,94922.42
2018-03-31T08:57:35.640Z,94898.48
2018-03-31T09:00:01.712Z,94906.75
2018-03-31T09:02:27.693Z,94884.89
2018-03-31T09:04:53.634Z,94892.75
2018-03-31T09:07:19.645Z,94877.40
2018-03-31T09:09:45.657Z,94889.42
2018-03-31T09:12:11.623Z,94881.33
2018-03-31T09:14:37.612Z,94877.97
2018-03-31T09:17:03.599Z,94868.86
2018-03-31T09:19:29.589Z,94860.57
2018-03-31T09:21:55.653Z,94878.47
2018-03-31T09:24:21.545Z,94864.30
2018-03-31T09:26:47.563Z,94845.22
2018-03-31T09:29:13.572Z,94849.16
2018-03-31T09:31:39.565Z,94847.41
2018-03-31T09:34:05.525Z,94836.16
2018-03-31T09:36:31.583Z,94816.89
2018-03-31T09:38:57.589Z,94818.13
2018-03-31T09:41:23.565Z,94807.86
2018-03-31T09:43:49.549Z,94811.28
2018-03-31T09:46:15.533Z,94801.92
2018-03-31T09:48:41.549Z,94803.34
2018-03-31T09:51:07.574Z,94807.70
2018-03-31T09:53:33.561Z,94785.27
2018-03-31T09:55:59.582Z,94775.39
2018-03-31T09:58:25.561Z,94760.92
2018-03-31T10:00:51.580Z,94764.08
2018-03-31T10:03:17.566Z,94765.89
2018-03-31T10:05:43.589Z,94745.41
2018-03-31T10:08:09.614Z,94738.33
2018-03-31T10:10:35.592Z,94727.94
2018-03-31T10:13:01.788Z,94714.64
2018-03-31T10:15:27.741Z,94705.38
2018-03-31T10:17:53.719Z,94704.23
2018-03-31T10:20:19.701Z,94716.89
2018-03-31T10:22:45.706Z,94729.88
2018-03-31T10:25:11.693Z,94729.88
2018-03-31T10:27:37.638Z,94719.07
2018-03-31T10:30:03.617Z,94715.51
2018-03-31T10:32:29.631Z,94703.78
2018-03-31T10:34:55.671Z,94701.14
2018-03-31T10:37:24.912Z,94705.64
2018-03-31T10:39:50.911Z,94698.35
2018-03-31T10:42:16.888Z,94687.54
2018-03-31T10:44:42.912Z,94696.87
2018-03-31T10:47:08.869Z,94687.86
2018-03-31T10:49:34.854Z,94665.25
2018-03-31T10:52:00.870Z,94639.46
2018-03-31T10:54:26.820Z,94648.90
2018-03-31T10:56:52.839Z,94635.73
2018-03-31T10:59:18.823Z,94644.63
2018-03-31T11:01:44.857Z,94659.17
2018-03-31T11:04:10.886Z,94641.90
2018-03-31T11:06:36.872Z,94638.20
2018-03-31T11:09:02.816Z,94646.23
2018-03-31T11:11:29.906Z,94648.81
2018-03-31T11:13:56.870Z,94646.23
2018-03-31T11:16:22.880Z,94644.25
2018-03-31T11:18:49.034Z,94642.30
2018-03-31T11:21:15.022Z,94645.77
2018-03-31T11:23:41.065Z,94638.08
2018-03-31T11:26:07.045Z,94646.52
2018-03-31T11:28:33.063Z,94646.14
2018-03-31T11:30:59.044Z,94648.33
2018-03-31T11:33:25.021Z,94641.41
2018-03-31T11:35:50.973Z,94624.74
2018-03-31T11:38:17.005Z,94631.20
2018-03-31T11:40:43.014Z,94644.36
2018-03-31T11:43:08.961Z,94622.33
2018-03-31T11:45:34.952Z,94631.37
2018-03-31T11:48:00.969Z,94620.38
2018-03-31T11:50:26.996Z,94618.20
2018-03-31T11:52:52.944Z,94624.34
2018-03-31T11:55:18.969Z,94623.16
2018-03-31T11:57:45.011Z,94616.83
2018-03-31T12:00:10.995Z,94597.17
2018-03-31T12:02:37.014Z,94618.83
2018-03-31T12:05:02.993Z,94610.57
2018-03-31T12:07:28.999Z,94615.45
2018-03-31T12:09:54.945Z,94605.23
2018-03-31T12:12:21.000Z,94593.02
2018-03-31T12:14:46.984Z,94595.22
2018-03-31T12:17:12.998Z,94586.01
2018-03-31T12:19:39.009Z,94576.17
2018-03-31T12:22:04.977Z,94567.33
2018-03-31T12:24:31.003Z,94547.09
2018-03-31T12:26:57.049Z,94535.91
2018-03-31T12:29:23.190Z,94537.71
2018-03-31T12:31:49.207Z,94520.81
2018-03-31T12:34:15.175Z,94531.02
2018-03-31T12:36:41.175Z,94528.72
2018-03-31T12:39:07.144Z,94526.80
2018-03-31T12:41:33.150Z,94534.48
2018-03-31T12:43:59.100Z,94526.84
2018-03-31T12:46:25.080Z,94528.30
2018-03-31T12:48:51.122Z,94518.02
2018-03-31T12:51:17.072Z,94502.72
2018-03-31T12:53:43.068Z,94482.08
2018-03-31T12:56:09.052Z,94499.77
2018-03-31T12:58:35.034Z,94481.29
2018-03-31T13:01:01.108Z,94481.70
2018-03-31T13:03:27.076Z,94474.42
2018-03-31T13:05:53.061Z,94463.69
2018-03-31T13:08:19.042Z,94465.86
2018-03-31T13:10:45.017Z,94463.28
2018-03-31T13:13:10.995Z,94449.72
2018-03-31T13:15:37.009Z,94465.30
2018-03-31T13:18:02.982Z,94460.14
2018-03-31T13:20:28.930Z,94460.77
2018-03-31T13:22:55.005Z,94455.70
2018-03-31T13:25:20.935Z,94435.45
2018-03-31T13:27:46.947Z,94435.23
2018-03-31T13:30:12.966Z,94436.63
2018-03-31T13:32:38.963Z,94425.82
2018-03-31T13:35:04.970Z,94437.19
2018-03-31T13:37:30.908Z,94434.43
2018-03-31T13:39:56.944Z,94434.06
2018-03-31T13:42:22.923Z,94421.03
2018-03-31T13:44:48.889Z,94420.45
2018-03-31T13:47:14.935Z,94415.52
2018-03-31T13:49:40.889Z,94426.72
2018-03-31T13:52:06.875Z,94421.61
2018-03-31T13:54:32.862Z,94414.70
2018-03-31T13:56:58.841Z,94418.47
2018-03-31T13:59:24.826Z,94408.05
2018-03-31T14:01:50.870Z,94400.16
2018-03-31T14:04:16.815Z,94405.67
2018-03-31T14:06:42.829Z,94398.16
2018-03-31T14:09:08.794Z,94398.56
2018-03-31T14:11:34.803Z,94391.08
2018-03-31T14:14:00.810Z,94392.63
2018-03-31T14:16:26.817Z,94387.92
2018-03-31T14:18:52.757Z,94392.22
2018-03-31T14:21:18.776Z,94374.46
2018-03-31T14:23:44.721Z,94392.37
2018-03-31T14:26:10.736Z,94386.61
2018-03-31T14:28:36.738Z,94382.69
2018-03-31T14:31:02.725Z,94388.55
2018-03-31T14:33:28.714Z,94384.63
2018-03-31T14:35:54.736Z,94386.17
2018-03-31T14:38:20.794Z,94389.16
2018-03-31T14:40:46.830Z,94386.53
2018-03-31T14:43:12.796Z,94400.73
2018-03-31T14:45:38.784Z,94391.64
2018-03-31T14:48:04.795Z,94376.85
2018-03-31T14:50:30.775Z,94379.83
2018-03-31T14:52:56.754Z,94381.20
2018-03-31T14:55:22.759Z,94383.16
2018-03-31T14:57:48.705Z,94381.58
2018-03-31T15:00:14.697Z,94378.65
2018-03-31T15:02:40.681Z,94375.11
2018-03-31T15:05:06.667Z,94384.18
2018-03-31T15:07:32.647Z,94383.55
2018-03-31T15:09:58.627Z,94385.90
2018-03-31T15:12:24.598Z,94388.84
2018-03-31T15:14:50.738Z,94384.90
2018-03-31T15:17:16.743Z,94375.84
2018-03-31T15:19:42.684Z,94363.05
2018-03-31T15:22:08.710Z,94356.36
2018-03-31T15:24:34.685Z,94346.72
2018-03-31T15:27:00.701Z,94348.86
2018-03-31T15:29:26.647Z,94353.99
2018-03-31T15:31:52.631Z,94357.73
2018-03-31T15:34:18.613Z,94353.39
2018-03-31T15:36:44.589Z,94352.59
2018-03-31T15:39:10.583Z,94346.72
2018-03-31T15:41:36.607Z,94342.76
2018-03-31T15:44:02.609Z,94339.98
2018-03-31T15:46:28.631Z,94327.56
2018-03-31T15:48:54.617Z,94330.12
2018-03-31T15:51:20.596Z,94329.52
2018-03-31T15:53:46.632Z,94318.31
2018-03-31T15:56:12.586Z,94310.45
2018-03-31T15:58:38.574Z,94299.78
2018-03-31T16:01:04.560Z,94276.58
2018-03-31T16:03:30.547Z,94270.09
2018-03-31T16:05:56.541Z,94267.91
2018-03-31T16:08:22.574Z,94264.76
2018-03-31T16:10:48.503Z,94269.31
2018-03-31T16:13:14.686Z,94269.48
2018-03-31T16:15:40.666Z,94264.19
2018-03-31T16:18:06.654Z,94270.11
2018-03-31T16:20:32.637Z,94266.14
2018-03-31T16:22:58.649Z,94267.32
2018-03-31T16:25:24.634Z,94261.41
2018-03-31T16:27:50.638Z,94267.50
2018-03-31T16:30:16.636Z,94254.91
2018-03-31T16:32:42.618Z,94255.68
2018-03-31T16:35:08.597Z,94249.00
2018-03-31T16:37:34.605Z,94252.16
2018-03-31T16:40:00.585Z,94250.36
2018-03-31T16:42:26.597Z,94245.83
2018-03-31T16:44:52.549Z,94246.02
2018-03-31T16:47:18.563Z,94254.27
2018-03-31T16:49:44.522Z,94239.13
2018-03-31T16:52:10.548Z,94239.16
2018-03-31T16:54:36.522Z,94245.83
2018-03-31T16:57:02.497Z,94245.41
2018-03-31T16:59:28.468Z,94244.61
2018-03-31T17:01:54.527Z,94232.83
2018-03-31T17:04:20.504Z,94246.37
2018-03-31T17:06:46.527Z,94227.88
2018-03-31T17:09:12.533Z,94231.44
2018-03-31T17:11:41.552Z,94225.16
2018-03-31T17:14:07.574Z,94218.29
2018-03-31T17:16:33.523Z,94223.59
2018-03-31T17:18:59.547Z,94228.12
2018-03-31T17:21:25.566Z,94218.09
2018-03-31T17:23:51.540Z,94206.27
2018-03-31T17:26:17.558Z,94206.86
2018-03-31T17:28:43.601Z,94211.00
2018-03-31T17:31:09.541Z,94214.33
2018-03-31T17:33:35.524Z,94210.03
2018-03-31T17:36:01.579Z,94204.52
2018-03-31T17:38:27.561Z,94204.12
2018-03-31T17:40:53.506Z,94199.59
2018-03-31T17:43:19.609Z,94197.05
2018-03-31T17:45:45.583Z,94211.82
2018-03-31T17:48:11.567Z,94209.84
2018-03-31T17:50:37.551Z,94213.16
2018-03-31T17:53:03.565Z,94216.11
2018-03-31T17:55:29.552Z,94200.41
2018-03-31T17:57:55.500Z,94197.23
2018-03-31T18:00:21.545Z,94187.39
2018-03-31T18:02:47.529Z,94191.71
2018-03-31T18:05:13.508Z,94192.29
2018-03-31T18:07:39.523Z,94181.27
2018-03-31T18:10:05.466Z,94182.47
2018-03-31T18:12:31.448Z,94182.28
2018-03-31T18:14:57.441Z,94168.69
2018-03-31T18:17:23.423Z,94173.22
2018-03-31T18:19:49.408Z,94162.63
2018-03-31T18:22:15.414Z,94169.28
2018-03-31T18:24:41.398Z,94168.73
2018-03-31T18:27:07.383Z,94165.79
2018-03-31T18:29:33.385Z,94174.24
2018-03-31T18:31:59.364Z,94159.69
2018-03-31T18:34:25.409Z,94165.59
2018-03-31T18:36:51.545Z,94161.08
2018-03-31T18:39:17.573Z,94158.33
2018-03-31T18:41:43.552Z,94145.75
2018-03-31T18:44:09.497Z,94143.58
2018-03-31T18:46:35.489Z,94124.72
2018-03-31T18:49:01.536Z,94114.91
2018-03-31T18:51:27.586Z,94128.45
2018-03-31T18:53:53.501Z,94143.20
2018-03-31T18:56:19.533Z,94123.95
2018-03-31T18:58:45.525Z,94133.41
2018-03-31T19:01:11.540Z,94132.03
2018-03-31T19:03:37.507Z,94100.74
2018-03-31T19:06:03.520Z,94097.35
2018-03-31T19:08:29.494Z,94112.11
2018-03-31T19:10:55.511Z,94119.20
2018-03-31T19:13:21.490Z,94111.30
2018-03-31T19:15:47.503Z,94105.80
2018-03-31T19:18:13.500Z,94098.50
2018-03-31T19:20:39.565Z,94112.27
2018-03-31T19:23:05.545Z,94111.48
2018-03-31T19:25:31.563Z,94091.22
2018-03-31T19:27:57.592Z,94090.22
2018-03-31T19:30:23.575Z,94088.83
2018-03-31T19:32:49.528Z,94091.19
2018-03-31T19:35:15.519Z,94096.30
2018-03-31T19:37:41.507Z,94080.95
2018-03-31T19:40:07.690Z,94080.56
2018-03-31T19:42:33.734Z,94099.81
2018-03-31T19:44:59.723Z,94090.77
2018-03-31T19:47:25.697Z,94068.55
2018-03-31T19:49:51.688Z,94031.37
2018-03-31T19:52:17.706Z,94041.22
2018-03-31T19:54:43.678Z,94050.45
2018-03-31T19:57:09.657Z,94013.27
2018-03-31T19:59:35.642Z,94019.39
2018-03-31T20:02:01.650Z,94021.53
2018-03-31T20:04:27.639Z,94000.12
2018-03-31T20:06:53.609Z,94004.83
2018-03-31T20:09:19.624Z,93999.90
2018-03-31T20:11:45.574Z,93997.35
2018-03-31T20:14:11.548Z,93995.97
2018-03-31T20:16:37.532Z,93997.72
2018-03-31T20:19:03.543Z,93984.16
2018-03-31T20:21:29.553Z,93975.33
2018-03-31T20:23:55.531Z,93973.16
2018-03-31T20:26:21.480Z,93987.11
2018-03-31T20:28:47.494Z,93981.02
2018-03-31T20:31:13.482Z,93977.28
2018-03-31T20:33:39.433Z,93971.37
2018-03-31T20:36:05.445Z,93967.25
2018-03-31T20:38:31.406Z,93968.43
2018-03-31T20:40:57.386Z,93960.36
2018-03-31T20:43:23.372Z,93957.78
2018-03-31T20:45:49.358Z,93933.62
2018-03-31T20:48:15.367Z,93933.41
2018-03-31T20:50:41.323Z,93927.13
2018-03-31T20:53:07.296Z,93927.89
2018-03-31T20:55:33.283Z,93932.42
2018-03-31T20:57:59.298Z,93935.38
2018-03-31T21:00:25.250Z,93923.98
2018-03-31T21:02:51.228Z,93926.73
2018-03-31T21:05:17.215Z,93902.72
2018-03-31T21:07:43.236Z,93891.33
2018-03-31T21:10:09.186Z,93898.59
2018-03-31T21:12:35.164Z,93892.71
2018-03-31T21:15:01.150Z,93884.63
2018-03-31T21:17:27.133Z,93884.05
2018-03-31T21:19:53.238Z,93871.66
2018-03-31T21:22:19.209Z,93882.28
2018-03-31T21:24:45.188Z,93870.87
2018-03-31T21:27:11.173Z,93873.62
2018-03-31T21:29:37.144Z,93863.80
2018-03-31T21:32:03.127Z,93841.56
2018-03-31T21:34:29.114Z,93858.30
2018-03-31T21:36:55.097Z,93860.25
2018-03-31T21:39:21.108Z,93835.87
2018-03-31T21:41:47.062Z,93829.17
2018-03-31T21:44:13.050Z,93847.86
2018-03-31T21:46:39.032Z,93809.32
2018-03-31T21:49:05.049Z,93816.99
2018-03-31T21:51:31.053Z,93815.01
2018-03-31T21:53:57.042Z,93806.17
2018-03-31T21:56:23.031Z,93771.35
2018-03-31T21:58:49.044Z,93796.53
2018-03-31T22:01:15.005Z,93782.95
2018-03-31T22:03:40.984Z,93781.97
2018-03-31T22:06:06.993Z,93815.98
2018-03-31T22:08:32.975Z,93816.99
2018-03-31T22:10:58.930Z,93753.46
2018-03-31T22:13:24.935Z,93775.48
2018-03-31T22:15:50.934Z,93785.33
2018-03-31T22:18:16.899Z,93764.47
2018-03-31T22:20:42.857Z,93769.80
2018-03-31T22:23:08.869Z,93747.77
2018-03-31T22:25:34.821Z,93759.95
2018-03-31T22:28:00.807Z,93766.43
2018-03-31T22:30:26.784Z,93739.30
2018-03-31T22:32:52.760Z,93723.18
2018-03-31T22:35:18.735Z,93719.63
2018-03-31T22:37:44.726Z,93751.29
2018-03-31T22:40:10.739Z,93753.46
2018-03-31T22:42:36.713Z,93722.02
2018-03-31T22:45:02.747Z,93740.89
2018-03-31T22:47:28.712Z,93726.14
2018-03-31T22:49:54.663Z,93720.42
2018-03-31T22:52:20.641Z,93726.14
2018-03-31T22:54:46.629Z,93730.86
2018-03-31T22:57:12.645Z,93689.34
2018-03-31T22:59:38.656Z,93699.99
2018-03-31T23:02:04.603Z,93686.02
2018-03-31T23:04:30.581Z,93702.93
2018-03-31T23:06:56.621Z,93657.33
2018-03-31T23:09:22.566Z,93681.09
2018-03-31T23:11:48.545Z,93682.10
2018-03-31T23:14:14.632Z,93681.30
2018-03-31T23:16:40.668Z,93661.23
2018-03-31T23:19:06.684Z,93659.68
2018-03-31T23:21:32.638Z,93649.06
2018-03-31T23:23:58.643Z,93666.34
2018-03-31T23:26:24.596Z,93624.88
2018-03-31T23:28:50.582Z,93671.09
2018-03-31T23:31:16.568Z,93643.34
2018-03-31T23:33:42.541Z,93632.73
2018-03-31T23:36:08.517Z,93633.71
2018-03-31T23:38:34.501Z,93629.98
2018-03-31T23:41:00.487Z,93606.19
2018-03-31T23:43:26.465Z,93627.63
2018-03-31T23:45:52.462Z,93626.25
2018-03-31T23:48:18.448Z,93612.67
2018-03-31T23:50:44.418Z,93599.12
2018-03-31T23:53:10.405Z,93578.66
2018-03-31T23:55:36.388Z,93603.64
2018-03-31T23:58:02.410Z,93583.00
